Time;durP1;ratioP1;P1;durP2;ratioP2;P2;SDS_P1;SDS_P2;PMS_P1;PMS_P2;Temp;Humidity;BMP_temperature;BMP_pressure;BME280_temperature;BME280_humidity;BME280_pressure;Samples;Min_cycle;Max_cycle;Signal;HPM_P1;HPM_P2
2021/03/02 00:00:52;;;;;;;14.53;9.87;;;11.60;99.90;;;;;;4975096;28;20241;-73
2021/03/02 00:03:21;;;;;;;16.63;9.73;;;11.60;99.90;;;;;;4974288;28;20252;-74
2021/03/02 00:05:47;;;;;;;13.33;8.17;;;11.60;99.90;;;;;;4974803;28;20252;-74
2021/03/02 00:08:14;;;;;;;20.07;9.27;;;11.70;99.90;;;;;;4973996;28;20584;-74
2021/03/02 00:10:43;;;;;;;18.13;9.03;;;11.60;99.90;;;;;;4974852;28;20212;-73
2021/03/02 00:13:11;;;;;;;16.97;9.10;;;11.60;99.90;;;;;;4974587;28;20209;-76
2021/03/02 00:15:39;;;;;;;17.57;8.97;;;11.60;99.90;;;;;;4974502;28;20236;-74
2021/03/02 00:18:07;;;;;;;17.47;9.40;;;11.60;99.90;;;;;;4974656;28;20210;-74
2021/03/02 00:20:37;;;;;;;15.10;9.63;;;11.60;99.90;;;;;;4974566;28;20209;-76
2021/03/02 00:23:07;;;;;;;13.07;8.43;;;11.60;99.90;;;;;;4974725;28;20233;-72
2021/03/02 00:25:37;;;;;;;19.90;8.47;;;11.60;99.90;;;;;;4974490;28;20659;-73
2021/03/02 00:28:07;;;;;;;12.50;8.97;;;11.60;99.90;;;;;;4975189;28;20213;-73
2021/03/02 00:30:35;;;;;;;15.23;8.27;;;11.60;99.90;;;;;;4974332;28;20681;-71
2021/03/02 00:33:04;;;;;;;18.07;7.53;;;11.50;99.90;;;;;;4974955;28;20236;-73
2021/03/02 00:35:31;;;;;;;19.93;7.40;;;11.70;99.90;;;;;;4973598;28;20261;-74
2021/03/02 00:37:58;;;;;;;18.00;7.73;;;11.60;99.90;;;;;;4974166;28;20221;-74
2021/03/02 00:40:25;;;;;;;21.43;8.20;;;11.60;99.90;;;;;;4973977;28;20217;-75
2021/03/02 00:42:52;;;;;;;15.83;7.80;;;11.50;99.90;;;;;;4973897;28;20593;-73
2021/03/02 00:45:19;;;;;;;13.97;7.77;;;11.50;99.90;;;;;;4973764;28;20237;-73
2021/03/02 00:47:45;;;;;;;15.93;7.57;;;11.40;99.90;;;;;;4974032;28;20213;-72
2021/03/02 00:50:13;;;;;;;18.57;7.27;;;11.40;99.90;;;;;;4973273;28;20198;-72
2021/03/02 00:52:39;;;;;;;12.70;7.23;;;11.40;99.90;;;;;;4974272;28;20213;-74
2021/03/02 00:55:08;;;;;;;13.40;6.23;;;11.40;99.90;;;;;;4973824;28;20205;-74
2021/03/02 00:57:35;;;;;;;11.27;7.00;;;11.40;99.90;;;;;;4974221;28;20218;-72
2021/03/02 01:00:02;;;;;;;22.03;8.57;;;11.50;99.90;;;;;;4974111;28;20232;-73
2021/03/02 01:02:29;;;;;;;15.13;7.00;;;11.50;99.90;;;;;;4973525;28;20205;-73
2021/03/02 01:04:55;;;;;;;10.63;7.80;;;11.50;99.90;;;;;;4973689;28;20217;-73
2021/03/02 01:07:21;;;;;;;13.30;6.63;;;11.40;99.90;;;;;;4973671;28;20224;-72
2021/03/02 01:09:48;;;;;;;17.03;8.40;;;11.50;99.90;;;;;;4973970;28;20210;-73
2021/03/02 01:12:15;;;;;;;11.00;5.83;;;11.50;99.90;;;;;;4973102;28;20241;-73
2021/03/02 01:14:42;;;;;;;13.30;6.90;;;11.40;99.90;;;;;;4973521;28;20213;-73
2021/03/02 01:17:08;;;;;;;10.67;5.83;;;11.50;99.90;;;;;;4971678;28;20241;-73
2021/03/02 01:19:35;;;;;;;10.47;6.77;;;11.40;99.90;;;;;;4963778;28;20584;-73
2021/03/02 01:22:01;;;;;;;11.67;7.23;;;11.40;99.90;;;;;;4972528;28;20210;-73
2021/03/02 01:24:28;;;;;;;10.33;6.30;;;11.40;99.90;;;;;;4973129;28;20209;-73
2021/03/02 01:26:54;;;;;;;11.43;5.93;;;11.30;99.90;;;;;;4971878;28;20268;-72
2021/03/02 01:29:21;;;;;;;15.30;6.60;;;11.30;99.90;;;;;;4973099;28;20252;-72
2021/03/02 01:31:48;;;;;;;15.37;6.90;;;11.40;99.90;;;;;;4972988;28;20678;-74
2021/03/02 01:34:14;;;;;;;12.37;6.67;;;11.40;99.90;;;;;;4971224;28;20213;-74
2021/03/02 01:36:41;;;;;;;13.17;6.77;;;11.30;99.90;;;;;;4971531;28;20288;-74
2021/03/02 01:39:07;;;;;;;12.93;5.87;;;11.30;99.90;;;;;;4972393;28;20210;-75
2021/03/02 01:41:34;;;;;;;14.07;7.17;;;11.20;99.90;;;;;;4973440;28;20206;-73
2021/03/02 01:44:00;;;;;;;10.17;5.60;;;11.20;99.90;;;;;;4973104;28;20206;-77
2021/03/02 01:46:27;;;;;;;11.13;6.03;;;11.10;99.90;;;;;;4972308;28;20215;-75
2021/03/02 01:48:54;;;;;;;12.80;5.87;;;11.10;99.90;;;;;;4973252;28;20209;-75
2021/03/02 01:51:20;;;;;;;13.20;6.23;;;11.20;99.90;;;;;;4972193;28;20236;-73
2021/03/02 01:53:47;;;;;;;16.67;5.93;;;11.10;99.90;;;;;;4973144;28;20586;-72
2021/03/02 01:56:14;;;;;;;13.87;5.93;;;11.10;99.90;;;;;;4972374;28;20622;-73
2021/03/02 01:58:40;;;;;;;12.67;5.33;;;11.20;99.90;;;;;;4972406;28;20256;-72
2021/03/02 02:01:08;;;;;;;10.67;6.10;;;11.20;99.90;;;;;;4972612;28;20209;-71
2021/03/02 02:03:43;;;;;;;14.53;6.23;;;11.10;99.90;;;;;;4972479;28;20210;-71
2021/03/02 02:06:12;;;;;;;11.07;5.43;;;11.00;99.90;;;;;;4972618;28;20217;-73
2021/03/02 02:08:48;;;;;;;7.33;5.50;;;11.00;99.90;;;;;;4972601;28;20202;-73
2021/03/02 02:11:26;;;;;;;9.10;5.80;;;11.00;99.90;;;;;;4972111;28;20208;-73
2021/03/02 02:13:59;;;;;;;11.03;5.37;;;11.00;99.90;;;;;;4972219;28;20227;-74
2021/03/02 02:16:27;;;;;;;10.20;5.03;;;11.00;99.90;;;;;;4972187;28;20241;-73
2021/03/02 02:18:56;;;;;;;15.10;6.03;;;11.10;99.90;;;;;;4971969;28;20217;-74
2021/03/02 02:21:32;;;;;;;12.70;4.83;;;11.10;99.90;;;;;;4972171;28;20209;-72
2021/03/02 02:24:15;;;;;;;7.03;4.80;;;11.00;99.90;;;;;;4972307;28;20213;-73
2021/03/02 02:26:51;;;;;;;6.13;4.37;;;11.00;99.90;;;;;;4972463;28;20205;-74
2021/03/02 02:29:21;;;;;;;20.57;7.27;;;11.00;99.90;;;;;;4971693;28;20701;-72
2021/03/02 02:31:50;;;;;;;6.60;4.53;;;11.10;99.90;;;;;;4972115;28;20209;-73
2021/03/02 02:34:19;;;;;;;13.27;5.23;;;11.00;99.90;;;;;;4971532;28;20245;-72
2021/03/02 02:36:49;;;;;;;11.97;5.17;;;10.90;99.90;;;;;;4971860;28;20287;-73
2021/03/02 02:39:17;;;;;;;9.37;5.03;;;10.90;99.90;;;;;;4971379;28;20201;-72
2021/03/02 02:41:47;;;;;;;9.87;4.57;;;11.00;99.90;;;;;;4972096;28;20576;-72
2021/03/02 02:44:15;;;;;;;8.43;4.50;;;10.90;99.90;;;;;;4971536;28;20213;-73
2021/03/02 02:46:42;;;;;;;11.50;5.73;;;11.00;99.90;;;;;;4972004;28;20212;-72
2021/03/02 02:49:11;;;;;;;10.77;4.70;;;10.90;99.90;;;;;;4971595;28;20241;-72
2021/03/02 02:51:38;;;;;;;9.37;5.47;;;11.00;99.90;;;;;;4971623;28;20216;-72
2021/03/02 02:54:06;;;;;;;9.57;4.50;;;11.00;99.90;;;;;;4972060;28;20221;-72
2021/03/02 02:56:34;;;;;;;12.70;4.37;;;11.00;99.90;;;;;;4972107;28;20273;-74
2021/03/02 02:59:05;;;;;;;11.63;5.37;;;11.00;99.90;;;;;;4972164;28;20213;-75
2021/03/02 03:01:38;;;;;;;6.77;4.00;;;11.00;99.90;;;;;;4971893;28;20209;-76
2021/03/02 03:04:08;;;;;;;7.10;3.60;;;11.00;99.90;;;;;;4971156;28;20209;-72
2021/03/02 03:06:37;;;;;;;7.83;3.67;;;11.00;99.90;;;;;;4971843;28;20264;-74
2021/03/02 03:09:06;;;;;;;7.83;3.60;;;11.00;99.90;;;;;;4972022;28;20213;-75
2021/03/02 03:11:37;;;;;;;10.57;5.60;;;11.00;99.90;;;;;;4970109;28;20636;-76
2021/03/02 03:14:07;;;;;;;6.13;2.73;;;10.90;99.90;;;;;;4971566;28;20205;-74
2021/03/02 03:16:35;;;;;;;5.80;3.30;;;11.00;99.90;;;;;;4971738;28;20284;-74
2021/03/02 03:19:03;;;;;;;7.10;3.80;;;10.90;99.90;;;;;;4971973;28;20202;-73
2021/03/02 03:21:30;;;;;;;6.10;4.27;;;11.00;99.90;;;;;;4970294;28;20698;-73
2021/03/02 03:23:57;;;;;;;15.07;3.77;;;10.90;99.90;;;;;;4971352;28;20214;-73
2021/03/02 03:26:26;;;;;;;7.80;3.87;;;10.90;99.90;;;;;;4969294;28;20603;-74
2021/03/02 03:28:56;;;;;;;5.03;3.23;;;10.90;99.90;;;;;;4970410;28;20210;-72
2021/03/02 03:31:23;;;;;;;4.13;2.70;;;10.90;99.90;;;;;;4971455;28;20213;-72
2021/03/02 03:33:52;;;;;;;6.97;3.77;;;10.80;99.90;;;;;;4971508;28;20220;-75
2021/03/02 03:36:19;;;;;;;8.00;3.73;;;10.90;99.90;;;;;;4971007;28;20229;-73
2021/03/02 03:38:46;;;;;;;7.00;3.10;;;10.80;99.90;;;;;;4971342;28;20292;-73
2021/03/02 03:41:14;;;;;;;9.73;4.97;;;10.90;99.90;;;;;;4971070;28;20212;-73
2021/03/02 03:43:40;;;;;;;6.10;3.30;;;10.80;99.90;;;;;;4971317;28;20209;-71
2021/03/02 03:46:07;;;;;;;5.93;3.23;;;10.80;99.90;;;;;;4970818;28;20678;-71
2021/03/02 03:48:35;;;;;;;9.90;3.57;;;10.80;99.90;;;;;;4971575;28;20712;-71
2021/03/02 03:51:01;;;;;;;5.87;4.37;;;10.80;99.90;;;;;;4971459;28;20220;-71
2021/03/02 03:53:32;;;;;;;7.07;4.10;;;10.70;99.90;;;;;;4970913;28;20213;-71
2021/03/02 03:55:59;;;;;;;4.73;3.03;;;10.80;99.90;;;;;;4971502;28;20233;-72
2021/03/02 03:58:29;;;;;;;8.93;3.33;;;10.70;99.90;;;;;;4970713;28;20342;-71
2021/03/02 04:00:57;;;;;;;6.83;3.77;;;10.70;99.90;;;;;;4971042;28;20213;-73
2021/03/02 04:03:26;;;;;;;9.67;4.00;;;10.70;99.90;;;;;;4970792;28;20248;-73
2021/03/02 04:05:58;;;;;;;5.23;2.73;;;10.60;99.90;;;;;;4970970;28;20641;-73
2021/03/02 04:08:25;;;;;;;7.67;3.23;;;10.70;99.90;;;;;;4970839;28;20206;-73
2021/03/02 04:10:51;;;;;;;8.33;3.60;;;10.70;99.90;;;;;;4971505;28;20210;-74
2021/03/02 04:13:18;;;;;;;5.40;3.77;;;10.70;99.90;;;;;;4970516;28;20210;-73
2021/03/02 04:15:45;;;;;;;9.13;4.07;;;10.70;99.90;;;;;;4974560;28;20233;-73
2021/03/02 04:18:14;;;;;;;11.53;3.67;;;10.70;99.90;;;;;;4974162;28;20209;-72
2021/03/02 04:20:42;;;;;;;9.43;3.27;;;10.70;99.90;;;;;;4973722;28;20220;-72
2021/03/02 04:23:10;;;;;;;9.30;3.77;;;10.70;99.90;;;;;;4974399;28;20205;-72
2021/03/02 04:25:37;;;;;;;7.67;3.93;;;10.60;99.90;;;;;;4974205;28;20206;-71
2021/03/02 04:28:05;;;;;;;11.53;3.73;;;10.70;99.90;;;;;;4974799;28;20222;-72
2021/03/02 04:30:32;;;;;;;7.83;3.20;;;10.70;99.90;;;;;;4974503;28;20244;-71
2021/03/02 04:32:58;;;;;;;13.70;4.93;;;10.80;99.90;;;;;;4974481;28;20212;-72
2021/03/02 04:35:25;;;;;;;8.77;4.07;;;10.70;99.90;;;;;;4973575;28;20362;-72
2021/03/02 04:37:52;;;;;;;8.83;3.47;;;10.70;99.90;;;;;;4974268;28;20229;-72
2021/03/02 04:40:19;;;;;;;8.90;3.67;;;10.60;99.90;;;;;;4973725;28;20209;-72
2021/03/02 04:42:45;;;;;;;8.07;3.60;;;10.60;99.90;;;;;;4974266;28;20314;-74
2021/03/02 04:45:14;;;;;;;10.40;4.17;;;10.70;99.90;;;;;;4973959;28;20220;-75
2021/03/02 04:47:43;;;;;;;6.03;2.73;;;10.60;99.90;;;;;;4974149;28;20213;-74
2021/03/02 04:50:10;;;;;;;10.63;3.43;;;10.70;99.90;;;;;;4973926;28;20584;-73
2021/03/02 04:52:37;;;;;;;8.87;2.93;;;10.70;99.90;;;;;;4973976;28;20260;-70
2021/03/02 04:55:04;;;;;;;12.53;4.23;;;10.70;99.90;;;;;;4974079;28;20268;-73
2021/03/02 04:57:32;;;;;;;6.33;3.27;;;10.70;99.90;;;;;;4973548;28;20271;-73
2021/03/02 04:59:58;;;;;;;15.67;2.67;;;10.80;99.90;;;;;;4973877;28;20209;-74
2021/03/02 05:02:24;;;;;;;11.33;3.60;;;10.80;99.90;;;;;;4973482;28;20679;-73
2021/03/02 05:04:51;;;;;;;5.70;4.00;;;10.90;99.90;;;;;;4973863;28;20209;-73
2021/03/02 05:07:18;;;;;;;7.77;2.67;;;10.80;99.90;;;;;;4971689;28;20233;-72
2021/03/02 05:09:44;;;;;;;2.17;1.90;;;10.80;99.90;;;;;;4970920;28;20213;-73
2021/03/02 05:12:15;;;;;;;8.77;2.83;;;10.90;99.90;;;;;;4973230;28;20673;-74
2021/03/02 05:14:42;;;;;;;7.93;2.50;;;10.80;99.90;;;;;;4973454;28;20670;-73
2021/03/02 05:17:09;;;;;;;4.50;2.80;;;10.90;99.90;;;;;;4973487;28;20234;-72
2021/03/02 05:19:36;;;;;;;5.77;2.30;;;10.80;99.90;;;;;;4973606;28;20256;-72
2021/03/02 05:22:03;;;;;;;8.87;2.73;;;10.90;99.90;;;;;;4972741;28;20212;-74
2021/03/02 05:24:30;;;;;;;4.90;2.90;;;10.80;99.90;;;;;;4972455;28;20812;-74
2021/03/02 05:26:56;;;;;;;6.23;2.10;;;10.80;99.90;;;;;;4970564;28;20245;-72
2021/03/02 05:29:23;;;;;;;10.40;3.73;;;10.80;99.90;;;;;;4973120;28;20213;-73
2021/03/02 05:31:50;;;;;;;8.07;2.63;;;10.80;99.90;;;;;;4973487;28;20275;-73
2021/03/02 05:34:17;;;;;;;4.40;2.50;;;10.80;99.90;;;;;;4972975;28;20210;-74
2021/03/02 05:36:45;;;;;;;6.37;2.77;;;10.80;99.90;;;;;;4973296;28;20241;-72
2021/03/02 05:39:11;;;;;;;6.63;2.33;;;10.80;99.90;;;;;;4972297;28;20301;-71
2021/03/02 05:41:41;;;;;;;5.30;2.30;;;10.90;99.90;;;;;;4972861;28;20209;-76
2021/03/02 05:44:09;;;;;;;4.70;2.20;;;10.90;99.90;;;;;;4972337;28;20671;-73
2021/03/02 05:46:37;;;;;;;7.23;3.20;;;10.80;99.90;;;;;;4973184;28;20264;-73
2021/03/02 05:49:05;;;;;;;8.73;2.57;;;10.80;99.90;;;;;;4973063;28;20644;-73
2021/03/02 05:51:33;;;;;;;9.43;2.63;;;10.80;99.90;;;;;;4973187;28;20666;-73
2021/03/02 05:54:01;;;;;;;6.40;3.03;;;10.90;99.90;;;;;;4972427;28;20560;-73
2021/03/02 05:56:29;;;;;;;2.87;1.77;;;10.90;99.90;;;;;;4972408;28;20709;-72
2021/03/02 05:58:55;;;;;;;5.03;2.00;;;10.90;99.90;;;;;;4963608;28;20214;-74
2021/03/02 06:01:22;;;;;;;3.33;1.93;;;11.00;99.90;;;;;;4970535;28;20206;-72
2021/03/02 06:03:48;;;;;;;8.73;3.07;;;10.90;99.90;;;;;;4972742;28;20303;-72
2021/03/02 06:06:16;;;;;;;3.40;1.80;;;10.90;99.90;;;;;;4972443;28;20217;-73
2021/03/02 06:08:45;;;;;;;6.13;2.67;;;11.00;99.90;;;;;;4972494;28;20205;-72
2021/03/02 06:11:30;;;;;;;5.13;3.13;;;10.90;99.90;;;;;;4972450;28;20217;-72
2021/03/02 06:13:57;;;;;;;14.27;3.67;;;10.90;99.90;;;;;;4972882;28;20260;-75
2021/03/02 06:16:24;;;;;;;6.20;3.10;;;10.90;99.90;;;;;;4971940;28;20621;-75
2021/03/02 06:18:52;;;;;;;7.23;3.60;;;10.90;99.90;;;;;;4972546;28;20256;-72
2021/03/02 06:21:21;;;;;;;8.90;3.63;;;11.00;99.90;;;;;;4972246;28;20288;-72
2021/03/02 06:23:51;;;;;;;6.53;3.40;;;11.00;99.90;;;;;;4971981;28;20682;-74
2021/03/02 06:26:27;;;;;;;12.40;5.13;;;10.90;99.90;;;;;;4972413;28;20588;-73
2021/03/02 06:28:56;;;;;;;8.10;4.30;;;11.00;99.90;;;;;;4972160;28;20292;-72
2021/03/02 06:31:34;;;;;;;9.97;4.53;;;10.90;99.90;;;;;;4972162;28;20280;-75
2021/03/02 06:34:05;;;;;;;7.83;3.93;;;10.90;99.90;;;;;;4972406;28;20210;-72
2021/03/02 06:36:33;;;;;;;10.03;3.47;;;10.90;99.90;;;;;;4971885;28;20237;-73
2021/03/02 06:39:21;;;;;;;6.23;3.33;;;11.00;99.90;;;;;;4972415;28;20271;-73
2021/03/02 06:41:48;;;;;;;7.27;3.47;;;10.90;99.90;;;;;;4963703;28;20213;-74
2021/03/02 06:44:15;;;;;;;10.20;3.67;;;11.00;99.90;;;;;;4961480;28;20205;-73
2021/03/02 06:46:42;;;;;;;8.13;3.50;;;11.00;99.90;;;;;;4972343;28;20208;-73
2021/03/02 06:49:09;;;;;;;5.80;3.43;;;11.00;99.90;;;;;;4964835;28;20686;-73
2021/03/02 06:51:38;;;;;;;9.07;4.13;;;11.00;99.90;;;;;;4971833;28;20560;-73
2021/03/02 06:54:06;;;;;;;4.43;3.20;;;10.90;99.90;;;;;;4971772;28;20215;-72
2021/03/02 06:56:33;;;;;;;4.37;3.53;;;10.90;99.90;;;;;;4971945;28;20229;-75
2021/03/02 06:59:18;;;;;;;6.43;4.83;;;11.00;99.90;;;;;;4972094;28;20229;-75
2021/03/02 07:01:47;;;;;;;9.80;3.20;;;10.90;99.90;;;;;;4971648;28;20294;-75
2021/03/02 07:04:14;;;;;;;11.20;3.67;;;11.00;99.90;;;;;;4971721;28;20216;-76
2021/03/02 07:06:43;;;;;;;8.93;3.63;;;11.00;99.90;;;;;;4971840;28;20257;-74
2021/03/02 07:09:13;;;;;;;6.33;3.53;;;11.00;99.90;;;;;;4971523;28;20209;-75
2021/03/02 07:11:41;;;;;;;10.20;4.57;;;11.10;99.90;;;;;;4971801;28;20289;-76
2021/03/02 07:14:09;;;;;;;6.30;4.47;;;11.10;99.90;;;;;;4970700;28;20209;-76
2021/03/02 07:16:39;;;;;;;13.13;4.37;;;11.10;99.90;;;;;;4971629;28;20237;-75
2021/03/02 07:19:06;;;;;;;9.53;4.50;;;11.20;99.90;;;;;;4969951;28;20214;-71
2021/03/02 07:21:36;;;;;;;7.80;3.97;;;11.20;99.90;;;;;;4968547;28;20205;-76
2021/03/02 07:24:06;;;;;;;11.80;4.67;;;11.20;99.90;;;;;;4968010;28;20201;-75
2021/03/02 07:26:34;;;;;;;9.13;4.37;;;11.20;99.90;;;;;;4970199;28;20241;-73
2021/03/02 07:29:02;;;;;;;7.43;3.90;;;11.30;99.90;;;;;;4969865;28;20206;-75
2021/03/02 07:31:31;;;;;;;7.63;4.33;;;11.30;99.90;;;;;;4970998;28;20216;-74
2021/03/02 07:33:59;;;;;;;10.90;3.97;;;11.30;99.90;;;;;;4971590;28;20206;-75
2021/03/02 07:36:25;;;;;;;6.43;3.90;;;11.30;99.90;;;;;;4971029;28;20233;-74
2021/03/02 07:39:16;;;;;;;8.93;4.17;;;11.40;99.90;;;;;;4969730;28;20701;-77
2021/03/02 07:41:43;;;;;;;9.27;3.47;;;11.40;99.90;;;;;;4962494;28;20293;-74
2021/03/02 07:44:10;;;;;;;7.67;3.17;;;11.50;99.90;;;;;;4968907;28;20268;-76
2021/03/02 07:46:52;;;;;;;5.50;3.33;;;11.50;99.90;;;;;;4971013;28;20210;-75
2021/03/02 07:49:37;;;;;;;7.90;4.30;;;11.60;99.90;;;;;;4969492;28;20288;-75
2021/03/02 07:52:19;;;;;;;17.03;4.67;;;11.60;99.90;;;;;;4974613;28;20213;-73
2021/03/02 07:54:47;;;;;;;7.07;3.90;;;11.60;99.90;;;;;;4970070;28;20348;-70
2021/03/02 07:57:27;;;;;;;5.97;3.50;;;11.70;99.90;;;;;;4974702;28;20291;-76
2021/03/02 08:00:21;;;;;;;6.63;3.80;;;11.70;99.90;;;;;;4973592;28;20208;-75
2021/03/02 08:03:18;;;;;;;6.87;3.43;;;11.90;99.90;;;;;;4969721;28;20213;-78
2021/03/02 08:05:44;;;;;;;7.47;3.40;;;12.00;99.90;;;;;;4967534;28;20296;-76
2021/03/02 08:08:29;;;;;;;7.90;4.07;;;12.00;99.90;;;;;;4973895;28;20666;-75
2021/03/02 08:10:58;;;;;;;6.53;3.80;;;12.00;99.90;;;;;;4973518;28;20232;-72
2021/03/02 08:13:35;;;;;;;6.23;4.33;;;12.10;99.90;;;;;;4970630;28;20209;-73
2021/03/02 08:16:04;;;;;;;11.37;4.67;;;12.10;99.90;;;;;;4974489;28;20247;-74
2021/03/02 08:18:35;;;;;;;6.83;3.47;;;12.30;99.90;;;;;;4974082;28;20213;-74
2021/03/02 08:21:15;;;;;;;10.80;4.40;;;12.30;99.90;;;;;;4972485;28;20213;-74
2021/03/02 08:23:50;;;;;;;9.33;4.17;;;12.50;99.90;;;;;;4974194;28;20206;-72
2021/03/02 08:26:31;;;;;;;7.30;3.70;;;12.60;99.90;;;;;;4971269;28;20228;-72
2021/03/02 08:29:06;;;;;;;7.77;4.07;;;12.60;99.90;;;;;;4973299;28;20693;-76
2021/03/02 08:31:32;;;;;;;5.13;3.47;;;12.70;99.90;;;;;;4969054;28;20577;-76
2021/03/02 08:34:00;;;;;;;4.77;3.90;;;12.70;99.90;;;;;;4972641;28;20221;-75
2021/03/02 08:36:28;;;;;;;10.37;3.87;;;12.50;99.90;;;;;;4973626;28;20757;-73
2021/03/02 08:38:54;;;;;;;8.70;4.37;;;12.40;99.90;;;;;;4973898;28;20225;-76
2021/03/02 08:41:31;;;;;;;7.17;4.17;;;12.60;99.90;;;;;;4972699;28;20241;-74
2021/03/02 08:43:58;;;;;;;5.40;4.03;;;12.90;99.90;;;;;;4972092;28;20213;-74
2021/03/02 08:46:30;;;;;;;5.80;3.57;;;13.20;99.90;;;;;;4973457;28;20686;-72
2021/03/02 08:48:57;;;;;;;6.30;4.00;;;13.40;99.90;;;;;;4973522;28;20213;-73
2021/03/02 08:51:25;;;;;;;6.03;3.80;;;13.40;99.90;;;;;;4973221;28;20214;-73
2021/03/02 08:53:52;;;;;;;10.07;4.50;;;13.40;99.90;;;;;;4974011;28;20209;-78
2021/03/02 08:56:24;;;;;;;7.20;3.78;;;13.10;99.90;;;;;;4973612;28;20233;-77
2021/03/02 08:58:53;;;;;;;12.97;4.77;;;13.30;99.90;;;;;;4970930;28;20205;-76
2021/03/02 09:01:27;;;;;;;7.07;4.27;;;13.30;99.90;;;;;;4970806;28;20662;-77
2021/03/02 09:04:06;;;;;;;8.15;4.57;;;13.60;99.90;;;;;;4973549;28;20977;-77
2021/03/02 09:06:33;;;;;;;6.82;3.15;;;13.70;99.90;;;;;;4972932;28;20248;-76
2021/03/02 09:09:02;;;;;;;5.67;3.73;;;13.70;99.90;;;;;;4965822;28;20209;-77
2021/03/02 09:11:31;;;;;;;8.05;4.43;;;13.80;99.90;;;;;;4971067;28;20670;-79
2021/03/02 09:14:00;;;;;;;9.05;4.10;;;14.00;99.90;;;;;;4973424;28;20206;-76
2021/03/02 09:16:35;;;;;;;12.93;3.87;;;14.10;99.90;;;;;;4972506;28;20642;-81
2021/03/02 09:19:20;;;;;;;12.25;4.38;;;14.70;99.90;;;;;;4973672;28;20213;-73
2021/03/02 09:21:53;;;;;;;8.27;4.03;;;14.90;99.90;;;;;;4970865;28;20379;-73
2021/03/02 09:24:20;;;;;;;9.13;3.55;;;15.10;99.90;;;;;;4972647;28;20210;-73
2021/03/02 09:26:56;;;;;;;7.55;3.67;;;15.60;99.90;;;;;;4972815;28;20225;-78
2021/03/02 09:29:25;;;;;;;4.22;3.17;;;15.30;99.90;;;;;;4970231;28;20213;-77
2021/03/02 09:31:55;;;;;;;8.27;4.05;;;14.60;99.90;;;;;;4965925;28;20214;-73
2021/03/02 09:34:21;;;;;;;5.20;3.53;;;14.50;99.90;;;;;;4971251;28;20237;-74
2021/03/02 09:36:48;;;;;;;4.82;3.75;;;14.40;99.90;;;;;;4972869;28;21103;-78
2021/03/02 09:39:23;;;;;;;8.60;4.57;;;14.80;99.90;;;;;;4971904;28;20221;-74
2021/03/02 09:41:51;;;;;;;10.38;4.18;;;15.80;99.90;;;;;;4967044;28;20216;-78
2021/03/02 09:44:27;;;;;;;8.45;4.00;;;15.40;99.90;;;;;;4973068;28;20210;-78
2021/03/02 09:46:57;;;;;;;9.50;4.40;;;14.70;99.90;;;;;;4972831;28;20676;-78
2021/03/02 09:49:34;;;;;;;10.00;4.43;;;14.80;99.90;;;;;;4971182;28;20213;-75
2021/03/02 09:52:01;;;;;;;5.18;3.90;;;15.50;99.90;;;;;;4971786;28;20272;-76
2021/03/02 09:54:27;;;;;;;7.82;3.72;;;15.20;99.90;;;;;;4967362;28;20235;-74
2021/03/02 09:56:59;;;;;;;11.88;4.88;;;16.00;99.90;;;;;;4966971;28;20237;-74
2021/03/02 09:59:26;;;;;;;9.27;4.63;;;16.20;99.90;;;;;;4971501;28;20245;-76
2021/03/02 10:01:53;;;;;;;6.30;3.78;;;16.00;99.90;;;;;;4971006;28;20264;-76
2021/03/02 10:04:20;;;;;;;4.55;3.38;;;16.30;99.90;;;;;;4971474;28;20212;-77
2021/03/02 10:06:48;;;;;;;10.75;4.45;;;15.90;99.90;;;;;;4972413;28;20217;-75
2021/03/02 10:09:22;;;;;;;6.75;4.13;;;16.40;99.90;;;;;;4971366;28;20213;-74
2021/03/02 10:12:06;;;;;;;7.32;4.38;;;16.50;99.90;;;;;;4969624;28;20209;-78
2021/03/02 10:14:37;;;;;;;8.15;3.75;;;17.00;99.90;;;;;;4972225;28;20258;-75
2021/03/02 10:17:03;;;;;;;5.78;4.30;;;17.40;99.90;;;;;;4972469;28;20240;-75
2021/03/02 10:19:30;;;;;;;6.90;3.53;;;16.40;99.90;;;;;;4972253;28;20209;-74
2021/03/02 10:21:58;;;;;;;6.28;3.72;;;16.40;99.90;;;;;;4972295;28;20209;-76
2021/03/02 10:24:26;;;;;;;8.73;4.38;;;16.60;99.90;;;;;;4971631;28;20214;-74
2021/03/02 10:26:54;;;;;;;7.47;4.50;;;16.90;99.90;;;;;;4971909;28;20297;-75
2021/03/02 10:29:21;;;;;;;6.32;4.20;;;16.80;99.90;;;;;;4971419;28;20578;-78
2021/03/02 10:31:49;;;;;;;10.45;3.97;;;16.30;99.90;;;;;;4967714;28;20752;-76
2021/03/02 10:34:17;;;;;;;7.65;4.57;;;16.30;99.90;;;;;;4969422;28;20220;-75
2021/03/02 10:36:45;;;;;;;14.93;4.07;;;15.80;99.90;;;;;;4969264;28;20324;-75
2021/03/02 10:39:13;;;;;;;10.70;4.82;;;15.20;99.90;;;;;;4971747;28;20213;-77
2021/03/02 10:41:40;;;;;;;6.68;4.65;;;15.50;99.90;;;;;;4971883;28;20261;-74
2021/03/02 10:44:07;;;;;;;5.95;4.32;;;14.90;99.90;;;;;;4968431;28;20239;-72
2021/03/02 10:46:34;;;;;;;10.10;5.03;;;15.10;99.90;;;;;;4972091;28;20202;-74
2021/03/02 10:49:02;;;;;;;9.98;4.78;;;15.10;99.90;;;;;;4971554;28;20216;-75
2021/03/02 10:51:32;;;;;;;6.70;4.20;;;14.90;99.90;;;;;;4971094;28;20205;-76
2021/03/02 10:53:59;;;;;;;11.88;4.82;;;15.10;99.90;;;;;;4967845;28;20232;-74
2021/03/02 10:56:26;;;;;;;9.45;4.30;;;15.00;99.90;;;;;;4970794;28;20709;-76
2021/03/02 10:58:53;;;;;;;6.93;3.58;;;14.60;99.90;;;;;;4971711;28;20209;-74
2021/03/02 11:01:21;;;;;;;10.32;4.78;;;14.40;99.90;;;;;;4970203;28;20682;-75
2021/03/02 11:03:48;;;;;;;9.38;5.15;;;14.80;99.90;;;;;;4971057;28;20256;-77
2021/03/02 11:06:17;;;;;;;6.95;3.63;;;14.70;99.90;;;;;;4970444;28;20205;-75
2021/03/02 11:08:44;;;;;;;7.55;4.57;;;14.80;99.90;;;;;;4970446;28;20677;-77
2021/03/02 11:11:11;;;;;;;7.95;3.83;;;15.00;99.90;;;;;;4970149;28;20633;-75
2021/03/02 11:13:38;;;;;;;7.40;4.18;;;14.70;99.90;;;;;;4971446;28;20576;-74
2021/03/02 11:16:05;;;;;;;10.50;4.30;;;14.80;99.90;;;;;;4967521;28;20215;-73
2021/03/02 11:18:32;;;;;;;9.70;5.55;;;14.70;99.90;;;;;;4971046;28;20288;-74
2021/03/02 11:20:58;;;;;;;8.85;4.25;;;14.60;99.90;;;;;;4959866;28;20209;-74
2021/03/02 11:23:26;;;;;;;10.45;4.10;;;14.60;99.90;;;;;;4969362;28;20233;-76
2021/03/02 11:25:52;;;;;;;8.18;4.15;;;14.60;99.90;;;;;;4966838;28;20656;-82
2021/03/02 11:28:18;;;;;;;5.03;4.53;;;14.70;99.90;;;;;;4973979;28;20677;-81
2021/03/02 11:30:46;;;;;;;7.72;4.43;;;14.70;99.90;;;;;;4975043;28;20206;-77
2021/03/02 11:33:13;;;;;;;10.15;3.70;;;14.60;99.90;;;;;;4973716;28;20677;-77
2021/03/02 11:35:41;;;;;;;6.43;4.93;;;14.50;99.90;;;;;;4974972;28;20764;-76
2021/03/02 11:38:08;;;;;;;8.65;4.57;;;14.40;99.90;;;;;;4974243;28;20237;-78
2021/03/02 11:40:35;;;;;;;15.40;5.47;;;14.40;99.90;;;;;;4975033;28;20563;-73
2021/03/02 11:43:03;;;;;;;18.55;5.40;;;14.40;99.90;;;;;;4975603;28;20216;-72
2021/03/02 11:45:30;;;;;;;7.53;5.15;;;14.70;99.90;;;;;;4974882;28;20201;-76
2021/03/02 11:47:58;;;;;;;8.88;4.05;;;14.90;99.90;;;;;;4975114;28;20224;-78
2021/03/02 11:50:25;;;;;;;13.73;5.20;;;14.60;99.90;;;;;;4974960;28;20806;-72
2021/03/02 11:52:52;;;;;;;8.05;4.28;;;14.70;99.90;;;;;;4975328;28;20213;-75
2021/03/02 11:55:19;;;;;;;7.05;4.88;;;14.80;99.90;;;;;;4974844;28;20213;-75
2021/03/02 11:57:47;;;;;;;11.13;4.68;;;14.80;99.90;;;;;;4974603;28;20237;-76
2021/03/02 12:00:16;;;;;;;7.97;4.57;;;14.70;99.90;;;;;;4974343;28;20217;-79
2021/03/02 12:02:44;;;;;;;12.93;5.78;;;14.80;99.90;;;;;;4974974;28;20581;-76
2021/03/02 12:05:12;;;;;;;11.15;5.13;;;14.70;99.90;;;;;;4974442;28;20217;-80
2021/03/02 12:07:38;;;;;;;12.05;4.75;;;14.80;99.90;;;;;;4973657;28;20206;-78
2021/03/02 12:10:08;;;;;;;12.98;5.20;;;14.80;99.90;;;;;;4973404;28;20209;-75
2021/03/02 12:12:35;;;;;;;14.27;6.68;;;14.80;99.90;;;;;;4974924;28;20260;-74
2021/03/02 12:15:03;;;;;;;12.40;4.95;;;14.70;99.90;;;;;;4969282;28;20201;-79
2021/03/02 12:17:29;;;;;;;7.93;4.85;;;14.90;99.90;;;;;;4974339;28;20241;-80
2021/03/02 12:19:56;;;;;;;13.82;5.07;;;14.90;99.90;;;;;;4974646;28;20217;-81
2021/03/02 12:22:22;;;;;;;7.18;4.45;;;14.60;99.90;;;;;;4974166;28;20578;-77
2021/03/02 12:24:49;;;;;;;11.95;5.00;;;14.60;99.90;;;;;;4974612;28;20212;-72
2021/03/02 12:27:16;;;;;;;11.45;4.95;;;14.80;99.90;;;;;;4973526;28;20218;-74
2021/03/02 12:29:42;;;;;;;11.15;4.90;;;14.90;99.90;;;;;;4974265;28;20209;-74
2021/03/02 12:32:10;;;;;;;10.13;5.15;;;14.80;99.90;;;;;;4972226;28;20693;-70
2021/03/02 12:34:37;;;;;;;8.85;6.22;;;14.60;99.90;;;;;;4972024;28;20214;-71
2021/03/02 12:37:04;;;;;;;7.25;4.00;;;14.30;99.90;;;;;;4970700;28;20761;-70
2021/03/02 12:39:31;;;;;;;11.32;4.90;;;14.40;99.90;;;;;;4970094;28;20253;-71
2021/03/02 12:41:57;;;;;;;9.57;4.78;;;14.40;99.90;;;;;;4972765;28;20244;-72
2021/03/02 12:44:24;;;;;;;10.60;4.57;;;14.40;99.90;;;;;;4968778;28;20202;-75
2021/03/02 12:46:50;;;;;;;11.07;5.18;;;14.50;99.90;;;;;;4970184;28;20248;-75
2021/03/02 12:49:18;;;;;;;12.00;4.90;;;14.40;99.90;;;;;;4972331;28;20599;-74
2021/03/02 12:51:45;;;;;;;7.88;4.97;;;14.40;99.90;;;;;;4973875;28;20210;-77